sensor_id;sensor_type;location;lat;lon;timestamp;temperature;humidity
975;DHT22;6115;49.296;10.602;2023-04-24T00:00:37;10.50;80.70
975;DHT22;6115;49.296;10.602;2023-04-24T00:05:41;10.50;80.60
975;DHT22;6115;49.296;10.602;2023-04-24T00:10:42;10.50;80.10
975;DHT22;6115;49.296;10.602;2023-04-24T00:15:42;10.50;79.30
975;DHT22;6115;49.296;10.602;2023-04-24T00:20:43;10.50;79.20
975;DHT22;6115;49.296;10.602;2023-04-24T00:25:44;10.50;79.20
975;DHT22;6115;49.296;10.602;2023-04-24T00:30:45;10.50;79.30
975;DHT22;6115;49.296;10.602;2023-04-24T00:35:45;10.40;79.10
975;DHT22;6115;49.296;10.602;2023-04-24T00:40:46;10.40;79.10
975;DHT22;6115;49.296;10.602;2023-04-24T00:45:48;10.40;79.20
975;DHT22;6115;49.296;10.602;2023-04-24T00:50:48;10.30;79.00
975;DHT22;6115;49.296;10.602;2023-04-24T00:55:49;10.20;78.90
975;DHT22;6115;49.296;10.602;2023-04-24T01:00:50;10.10;79.50
975;DHT22;6115;49.296;10.602;2023-04-24T01:05:54;10.20;80.20
975;DHT22;6115;49.296;10.602;2023-04-24T01:10:56;10.00;80.00
975;DHT22;6115;49.296;10.602;2023-04-24T01:15:57;10.10;80.80
975;DHT22;6115;49.296;10.602;2023-04-24T01:20:59;10.00;80.70
975;DHT22;6115;49.296;10.602;2023-04-24T01:26:00;10.00;80.90
975;DHT22;6115;49.296;10.602;2023-04-24T01:31:00;10.00;81.30
975;DHT22;6115;49.296;10.602;2023-04-24T01:36:01;9.90;82.30
975;DHT22;6115;49.296;10.602;2023-04-24T01:41:02;9.90;82.20
975;DHT22;6115;49.296;10.602;2023-04-24T01:46:02;9.80;82.20
975;DHT22;6115;49.296;10.602;2023-04-24T01:51:03;9.80;82.50
975;DHT22;6115;49.296;10.602;2023-04-24T01:56:04;9.80;82.60
975;DHT22;6115;49.296;10.602;2023-04-24T02:01:06;9.90;82.80
975;DHT22;6115;49.296;10.602;2023-04-24T02:06:07;10.00;81.90
975;DHT22;6115;49.296;10.602;2023-04-24T02:11:09;10.00;81.50
975;DHT22;6115;49.296;10.602;2023-04-24T02:16:09;10.00;80.70
975;DHT22;6115;49.296;10.602;2023-04-24T02:21:10;9.90;82.20
975;DHT22;6115;49.296;10.602;2023-04-24T02:26:11;9.90;82.30
975;DHT22;6115;49.296;10.602;2023-04-24T02:31:11;9.90;82.50
975;DHT22;6115;49.296;10.602;2023-04-24T02:36:12;9.80;82.10
975;DHT22;6115;49.296;10.602;2023-04-24T02:41:13;9.80;82.10
975;DHT22;6115;49.296;10.602;2023-04-24T02:46:14;9.90;82.10
975;DHT22;6115;49.296;10.602;2023-04-24T02:51:14;9.90;82.00
975;DHT22;6115;49.296;10.602;2023-04-24T02:56:15;9.90;82.00
975;DHT22;6115;49.296;10.602;2023-04-24T03:01:15;9.90;81.80
975;DHT22;6115;49.296;10.602;2023-04-24T03:06:16;9.80;81.50
975;DHT22;6115;49.296;10.602;2023-04-24T03:11:17;9.70;81.50
975;DHT22;6115;49.296;10.602;2023-04-24T03:16:17;9.60;81.60
975;DHT22;6115;49.296;10.602;2023-04-24T03:21:18;9.60;82.00
975;DHT22;6115;49.296;10.602;2023-04-24T03:26:18;9.60;82.10
975;DHT22;6115;49.296;10.602;2023-04-24T03:31:19;9.60;82.00
975;DHT22;6115;49.296;10.602;2023-04-24T03:36:21;9.50;82.10
975;DHT22;6115;49.296;10.602;2023-04-24T03:41:22;9.50;82.40
975;DHT22;6115;49.296;10.602;2023-04-24T03:46:23;9.50;82.60
975;DHT22;6115;49.296;10.602;2023-04-24T03:51:23;9.40;82.60
975;DHT22;6115;49.296;10.602;2023-04-24T03:56:24;9.50;83.00
975;DHT22;6115;49.296;10.602;2023-04-24T04:01:24;9.50;82.60
975;DHT22;6115;49.296;10.602;2023-04-24T04:06:25;9.40;82.30
975;DHT22;6115;49.296;10.602;2023-04-24T04:11:26;9.40;82.50
975;DHT22;6115;49.296;10.602;2023-04-24T04:16:27;9.40;82.60
975;DHT22;6115;49.296;10.602;2023-04-24T04:21:27;9.40;82.40
975;DHT22;6115;49.296;10.602;2023-04-24T04:26:28;9.40;82.30
975;DHT22;6115;49.296;10.602;2023-04-24T04:31:33;9.40;82.00
975;DHT22;6115;49.296;10.602;2023-04-24T04:36:34;9.40;81.70
975;DHT22;6115;49.296;10.602;2023-04-24T04:41:36;9.40;81.60
975;DHT22;6115;49.296;10.602;2023-04-24T04:46:38;9.40;81.70
975;DHT22;6115;49.296;10.602;2023-04-24T04:51:38;9.40;81.50
975;DHT22;6115;49.296;10.602;2023-04-24T04:56:39;9.40;81.10
975;DHT22;6115;49.296;10.602;2023-04-24T05:01:39;9.40;81.20
975;DHT22;6115;49.296;10.602;2023-04-24T05:06:40;9.50;81.60
975;DHT22;6115;49.296;10.602;2023-04-24T05:11:41;9.50;81.20
975;DHT22;6115;49.296;10.602;2023-04-24T05:16:41;9.60;81.10
975;DHT22;6115;49.296;10.602;2023-04-24T05:21:48;9.60;80.60
975;DHT22;6115;49.296;10.602;2023-04-24T05:26:49;9.60;80.30
975;DHT22;6115;49.296;10.602;2023-04-24T05:31:50;9.70;80.30
975;DHT22;6115;49.296;10.602;2023-04-24T05:36:51;9.80;79.60
975;DHT22;6115;49.296;10.602;2023-04-24T05:41:51;9.80;79.70
975;DHT22;6115;49.296;10.602;2023-04-24T05:46:53;9.90;79.70
975;DHT22;6115;49.296;10.602;2023-04-24T05:51:58;10.00;78.10
975;DHT22;6115;49.296;10.602;2023-04-24T05:56:59;10.00;78.10
975;DHT22;6115;49.296;10.602;2023-04-24T06:01:59;10.10;78.00
975;DHT22;6115;49.296;10.602;2023-04-24T06:07:00;10.10;77.70
975;DHT22;6115;49.296;10.602;2023-04-24T06:12:01;10.10;76.40
975;DHT22;6115;49.296;10.602;2023-04-24T06:17:01;10.00;76.30
975;DHT22;6115;49.296;10.602;2023-04-24T06:22:02;10.00;76.10
975;DHT22;6115;49.296;10.602;2023-04-24T06:27:03;10.00;76.20
975;DHT22;6115;49.296;10.602;2023-04-24T06:32:03;9.90;77.90
975;DHT22;6115;49.296;10.602;2023-04-24T06:37:04;10.00;77.60
975;DHT22;6115;49.296;10.602;2023-04-24T06:42:04;10.00;74.70
975;DHT22;6115;49.296;10.602;2023-04-24T06:47:05;10.20;73.80
975;DHT22;6115;49.296;10.602;2023-04-24T06:52:09;10.20;71.60
975;DHT22;6115;49.296;10.602;2023-04-24T06:57:10;10.20;69.30
975;DHT22;6115;49.296;10.602;2023-04-24T07:02:10;10.30;68.30
975;DHT22;6115;49.296;10.602;2023-04-24T07:07:12;10.30;66.00
975;DHT22;6115;49.296;10.602;2023-04-24T07:12:14;10.10;65.60
975;DHT22;6115;49.296;10.602;2023-04-24T07:17:14;10.00;64.50
975;DHT22;6115;49.296;10.602;2023-04-24T07:22:15;10.20;64.30
975;DHT22;6115;49.296;10.602;2023-04-24T07:27:17;10.20;61.70
975;DHT22;6115;49.296;10.602;2023-04-24T07:32:17;10.20;62.70
975;DHT22;6115;49.296;10.602;2023-04-24T07:37:18;10.00;63.40
975;DHT22;6115;49.296;10.602;2023-04-24T07:42:19;10.00;62.50
975;DHT22;6115;49.296;10.602;2023-04-24T07:47:19;10.00;64.10
975;DHT22;6115;49.296;10.602;2023-04-24T07:52:20;10.20;62.30
975;DHT22;6115;49.296;10.602;2023-04-24T07:57:20;10.10;61.50
975;DHT22;6115;49.296;10.602;2023-04-24T08:02:21;10.20;61.00
975;DHT22;6115;49.296;10.602;2023-04-24T08:07:26;10.30;61.10
975;DHT22;6115;49.296;10.602;2023-04-24T08:12:28;10.40;61.00
975;DHT22;6115;49.296;10.602;2023-04-24T08:17:29;10.50;59.70
975;DHT22;6115;49.296;10.602;2023-04-24T08:22:30;10.60;61.30
975;DHT22;6115;49.296;10.602;2023-04-24T08:27:30;10.70;59.80
975;DHT22;6115;49.296;10.602;2023-04-24T08:32:31;10.60;59.80
975;DHT22;6115;49.296;10.602;2023-04-24T08:37:32;10.70;59.50
975;DHT22;6115;49.296;10.602;2023-04-24T08:42:34;11.30;58.50
975;DHT22;6115;49.296;10.602;2023-04-24T08:47:38;11.10;56.70
975;DHT22;6115;49.296;10.602;2023-04-24T08:52:38;11.30;59.00
975;DHT22;6115;49.296;10.602;2023-04-24T08:57:40;11.60;58.10
975;DHT22;6115;49.296;10.602;2023-04-24T09:02:43;11.90;55.20
975;DHT22;6115;49.296;10.602;2023-04-24T09:07:49;12.00;54.40
975;DHT22;6115;49.296;10.602;2023-04-24T09:12:54;11.80;54.50
975;DHT22;6115;49.296;10.602;2023-04-24T09:17:55;12.00;53.60
975;DHT22;6115;49.296;10.602;2023-04-24T09:22:59;12.00;52.20
975;DHT22;6115;49.296;10.602;2023-04-24T09:28:01;12.00;52.20
975;DHT22;6115;49.296;10.602;2023-04-24T09:33:15;12.50;50.30
975;DHT22;6115;49.296;10.602;2023-04-24T09:38:16;12.60;48.20
975;DHT22;6115;49.296;10.602;2023-04-24T09:43:16;13.00;48.50
975;DHT22;6115;49.296;10.602;2023-04-24T09:48:17;12.70;46.40
975;DHT22;6115;49.296;10.602;2023-04-24T09:53:24;12.10;46.50
975;DHT22;6115;49.296;10.602;2023-04-24T09:58:25;12.30;48.00
975;DHT22;6115;49.296;10.602;2023-04-24T10:03:33;13.00;45.40
975;DHT22;6115;49.296;10.602;2023-04-24T10:08:35;13.10;44.10
975;DHT22;6115;49.296;10.602;2023-04-24T10:13:36;12.80;45.40
975;DHT22;6115;49.296;10.602;2023-04-24T10:18:37;13.20;44.20
975;DHT22;6115;49.296;10.602;2023-04-24T10:23:38;13.00;42.20
975;DHT22;6115;49.296;10.602;2023-04-24T10:28:39;12.70;43.60
975;DHT22;6115;49.296;10.602;2023-04-24T10:33:44;12.50;47.20
975;DHT22;6115;49.296;10.602;2023-04-24T10:38:46;12.30;49.60
975;DHT22;6115;49.296;10.602;2023-04-24T10:43:48;12.10;51.00
975;DHT22;6115;49.296;10.602;2023-04-24T10:48:54;11.60;50.20
975;DHT22;6115;49.296;10.602;2023-04-24T10:53:57;11.70;50.90
975;DHT22;6115;49.296;10.602;2023-04-24T10:58:58;12.50;49.70
975;DHT22;6115;49.296;10.602;2023-04-24T11:04:03;12.70;49.60
975;DHT22;6115;49.296;10.602;2023-04-24T11:09:10;13.10;46.80
975;DHT22;6115;49.296;10.602;2023-04-24T11:14:18;13.60;45.00
975;DHT22;6115;49.296;10.602;2023-04-24T11:19:22;13.10;45.80
975;DHT22;6115;49.296;10.602;2023-04-24T11:29:47;13.40;45.30
975;DHT22;6115;49.296;10.602;2023-04-24T11:34:49;13.20;44.20
975;DHT22;6115;49.296;10.602;2023-04-24T11:39:51;13.20;44.90
975;DHT22;6115;49.296;10.602;2023-04-24T11:44:53;13.70;41.60
975;DHT22;6115;49.296;10.602;2023-04-24T11:49:54;13.90;41.60
975;DHT22;6115;49.296;10.602;2023-04-24T11:54:55;13.20;41.70
975;DHT22;6115;49.296;10.602;2023-04-24T11:59:55;12.60;44.50
975;DHT22;6115;49.296;10.602;2023-04-24T12:04:56;12.60;45.10
975;DHT22;6115;49.296;10.602;2023-04-24T12:09:58;12.50;46.90
975;DHT22;6115;49.296;10.602;2023-04-24T12:15:07;12.60;48.20
975;DHT22;6115;49.296;10.602;2023-04-24T12:20:08;13.30;48.70
975;DHT22;6115;49.296;10.602;2023-04-24T12:25:10;14.00;47.10
975;DHT22;6115;49.296;10.602;2023-04-24T12:30:15;13.70;45.40
975;DHT22;6115;49.296;10.602;2023-04-24T12:35:21;12.90;44.80
975;DHT22;6115;49.296;10.602;2023-04-24T12:40:25;12.60;44.30
975;DHT22;6115;49.296;10.602;2023-04-24T12:45:25;13.30;46.30
975;DHT22;6115;49.296;10.602;2023-04-24T12:50:28;13.20;44.20
975;DHT22;6115;49.296;10.602;2023-04-24T12:55:28;13.20;44.20
975;DHT22;6115;49.296;10.602;2023-04-24T13:00:29;12.70;45.40
975;DHT22;6115;49.296;10.602;2023-04-24T13:05:29;12.60;44.60
975;DHT22;6115;49.296;10.602;2023-04-24T13:10:30;12.60;44.30
975;DHT22;6115;49.296;10.602;2023-04-24T13:15:31;12.00;45.80
975;DHT22;6115;49.296;10.602;2023-04-24T13:20:31;12.00;46.60
975;DHT22;6115;49.296;10.602;2023-04-24T13:25:35;11.50;47.70
975;DHT22;6115;49.296;10.602;2023-04-24T13:30:36;11.30;49.00
975;DHT22;6115;49.296;10.602;2023-04-24T13:35:36;10.80;52.10
975;DHT22;6115;49.296;10.602;2023-04-24T13:40:37;11.20;52.00
975;DHT22;6115;49.296;10.602;2023-04-24T13:45:38;12.20;50.90
975;DHT22;6115;49.296;10.602;2023-04-24T13:50:38;12.10;48.20
975;DHT22;6115;49.296;10.602;2023-04-24T13:55:39;12.70;48.30
975;DHT22;6115;49.296;10.602;2023-04-24T14:00:39;12.60;48.40
975;DHT22;6115;49.296;10.602;2023-04-24T14:05:40;12.00;48.60
975;DHT22;6115;49.296;10.602;2023-04-24T14:10:42;12.00;48.70
975;DHT22;6115;49.296;10.602;2023-04-24T14:15:43;11.90;49.20
975;DHT22;6115;49.296;10.602;2023-04-24T14:20:44;10.30;58.60
975;DHT22;6115;49.296;10.602;2023-04-24T14:25:45;9.60;65.50
975;DHT22;6115;49.296;10.602;2023-04-24T14:30:47;9.80;68.40
975;DHT22;6115;49.296;10.602;2023-04-24T14:35:48;10.20;69.30
975;DHT22;6115;49.296;10.602;2023-04-24T14:40:49;10.40;63.80
975;DHT22;6115;49.296;10.602;2023-04-24T14:45:50;10.60;64.80
975;DHT22;6115;49.296;10.602;2023-04-24T14:50:50;11.00;63.70
975;DHT22;6115;49.296;10.602;2023-04-24T14:55:51;11.70;57.60
975;DHT22;6115;49.296;10.602;2023-04-24T15:00:51;12.10;55.20
975;DHT22;6115;49.296;10.602;2023-04-24T15:05:54;12.00;52.20
975;DHT22;6115;49.296;10.602;2023-04-24T15:10:55;12.10;52.30
975;DHT22;6115;49.296;10.602;2023-04-24T15:15:55;12.00;52.20
975;DHT22;6115;49.296;10.602;2023-04-24T15:20:56;12.60;51.40
975;DHT22;6115;49.296;10.602;2023-04-24T15:25:57;12.50;50.20
975;DHT22;6115;49.296;10.602;2023-04-24T15:30:58;12.10;49.40
975;DHT22;6115;49.296;10.602;2023-04-24T15:35:58;12.20;49.90
975;DHT22;6115;49.296;10.602;2023-04-24T15:40:59;12.30;48.60
975;DHT22;6115;49.296;10.602;2023-04-24T15:46:00;12.10;47.80
975;DHT22;6115;49.296;10.602;2023-04-24T15:51:01;11.40;47.20
975;DHT22;6115;49.296;10.602;2023-04-24T15:56:01;11.40;47.50
975;DHT22;6115;49.296;10.602;2023-04-24T16:01:02;11.30;47.70
975;DHT22;6115;49.296;10.602;2023-04-24T16:06:03;11.30;49.20
975;DHT22;6115;49.296;10.602;2023-04-24T16:11:04;11.40;49.00
975;DHT22;6115;49.296;10.602;2023-04-24T16:16:05;11.20;50.00
975;DHT22;6115;49.296;10.602;2023-04-24T16:21:05;11.10;50.00
975;DHT22;6115;49.296;10.602;2023-04-24T16:26:08;11.10;50.60
975;DHT22;6115;49.296;10.602;2023-04-24T16:31:09;11.10;51.40
975;DHT22;6115;49.296;10.602;2023-04-24T16:36:10;11.60;50.30
975;DHT22;6115;49.296;10.602;2023-04-24T16:41:14;11.30;49.50
975;DHT22;6115;49.296;10.602;2023-04-24T16:46:15;11.20;50.70
975;DHT22;6115;49.296;10.602;2023-04-24T16:51:15;11.20;50.80
975;DHT22;6115;49.296;10.602;2023-04-24T16:56:16;11.00;50.20
975;DHT22;6115;49.296;10.602;2023-04-24T17:01:16;11.10;50.80
975;DHT22;6115;49.296;10.602;2023-04-24T17:06:17;11.10;51.00
975;DHT22;6115;49.296;10.602;2023-04-24T17:11:17;11.20;51.50
975;DHT22;6115;49.296;10.602;2023-04-24T17:16:18;10.90;51.20
975;DHT22;6115;49.296;10.602;2023-04-24T17:21:19;10.80;51.50
975;DHT22;6115;49.296;10.602;2023-04-24T17:26:20;10.80;51.40
975;DHT22;6115;49.296;10.602;2023-04-24T17:31:20;10.60;54.50
975;DHT22;6115;49.296;10.602;2023-04-24T17:36:21;10.20;55.20
975;DHT22;6115;49.296;10.602;2023-04-24T17:41:21;10.10;58.30
975;DHT22;6115;49.296;10.602;2023-04-24T17:46:23;9.60;60.30
975;DHT22;6115;49.296;10.602;2023-04-24T17:51:23;9.60;61.50
975;DHT22;6115;49.296;10.602;2023-04-24T17:56:24;9.60;62.00
975;DHT22;6115;49.296;10.602;2023-04-24T18:01:25;9.80;60.00
975;DHT22;6115;49.296;10.602;2023-04-24T18:06:27;9.60;57.70
975;DHT22;6115;49.296;10.602;2023-04-24T18:11:28;9.70;57.50
975;DHT22;6115;49.296;10.602;2023-04-24T18:16:30;9.70;56.90
975;DHT22;6115;49.296;10.602;2023-04-24T18:21:30;9.70;57.30
975;DHT22;6115;49.296;10.602;2023-04-24T18:26:31;9.70;58.10
975;DHT22;6115;49.296;10.602;2023-04-24T18:31:31;9.60;57.80
975;DHT22;6115;49.296;10.602;2023-04-24T18:36:32;9.50;57.80
975;DHT22;6115;49.296;10.602;2023-04-24T18:41:33;9.30;58.60
975;DHT22;6115;49.296;10.602;2023-04-24T18:46:34;9.20;59.50
975;DHT22;6115;49.296;10.602;2023-04-24T18:51:37;9.30;59.60
975;DHT22;6115;49.296;10.602;2023-04-24T18:56:38;9.30;59.60
975;DHT22;6115;49.296;10.602;2023-04-24T19:01:38;9.30;59.60
975;DHT22;6115;49.296;10.602;2023-04-24T19:06:39;9.20;59.50
975;DHT22;6115;49.296;10.602;2023-04-24T19:11:40;9.10;59.50
975;DHT22;6115;49.296;10.602;2023-04-24T19:16:41;9.10;59.50
975;DHT22;6115;49.296;10.602;2023-04-24T19:21:42;9.00;59.40
975;DHT22;6115;49.296;10.602;2023-04-24T19:26:44;9.00;59.40
975;DHT22;6115;49.296;10.602;2023-04-24T19:31:44;8.90;60.10
975;DHT22;6115;49.296;10.602;2023-04-24T19:36:45;8.80;60.30
975;DHT22;6115;49.296;10.602;2023-04-24T19:41:46;8.70;61.20
975;DHT22;6115;49.296;10.602;2023-04-24T19:46:46;8.70;61.60
975;DHT22;6115;49.296;10.602;2023-04-24T19:51:47;8.70;61.80
975;DHT22;6115;49.296;10.602;2023-04-24T19:56:48;8.80;61.60
975;DHT22;6115;49.296;10.602;2023-04-24T20:01:48;8.70;62.00
975;DHT22;6115;49.296;10.602;2023-04-24T20:06:50;8.70;62.50
975;DHT22;6115;49.296;10.602;2023-04-24T20:11:51;8.80;62.50
975;DHT22;6115;49.296;10.602;2023-04-24T20:16:52;8.80;62.50
975;DHT22;6115;49.296;10.602;2023-04-24T20:21:53;8.80;62.60
975;DHT22;6115;49.296;10.602;2023-04-24T20:26:54;8.80;63.20
975;DHT22;6115;49.296;10.602;2023-04-24T20:31:56;8.80;62.50
975;DHT22;6115;49.296;10.602;2023-04-24T20:36:57;8.90;62.60
975;DHT22;6115;49.296;10.602;2023-04-24T20:41:58;9.00;62.00
975;DHT22;6115;49.296;10.602;2023-04-24T20:46:59;9.10;61.70
975;DHT22;6115;49.296;10.602;2023-04-24T20:51:59;9.10;62.20
975;DHT22;6115;49.296;10.602;2023-04-24T20:57:00;9.00;62.20
975;DHT22;6115;49.296;10.602;2023-04-24T21:02:01;8.90;62.70
975;DHT22;6115;49.296;10.602;2023-04-24T21:07:02;8.90;63.40
975;DHT22;6115;49.296;10.602;2023-04-24T21:12:03;9.00;63.60
975;DHT22;6115;49.296;10.602;2023-04-24T21:17:04;9.00;63.40
975;DHT22;6115;49.296;10.602;2023-04-24T21:22:04;8.90;64.20
975;DHT22;6115;49.296;10.602;2023-04-24T21:27:05;8.80;64.10
975;DHT22;6115;49.296;10.602;2023-04-24T21:32:06;8.90;64.20
975;DHT22;6115;49.296;10.602;2023-04-24T21:37:07;9.00;64.30
975;DHT22;6115;49.296;10.602;2023-04-24T21:42:08;8.90;64.20
975;DHT22;6115;49.296;10.602;2023-04-24T21:47:09;8.90;64.20
975;DHT22;6115;49.296;10.602;2023-04-24T21:52:09;9.00;64.30
975;DHT22;6115;49.296;10.602;2023-04-24T21:57:10;9.00;64.70
975;DHT22;6115;49.296;10.602;2023-04-24T22:02:11;9.00;64.30
975;DHT22;6115;49.296;10.602;2023-04-24T22:07:12;9.00;64.30
975;DHT22;6115;49.296;10.602;2023-04-24T22:12:12;8.90;64.60
975;DHT22;6115;49.296;10.602;2023-04-24T22:17:13;9.00;65.00
975;DHT22;6115;49.296;10.602;2023-04-24T22:22:14;9.00;64.30
975;DHT22;6115;49.296;10.602;2023-04-24T22:27:15;9.00;64.30
975;DHT22;6115;49.296;10.602;2023-04-24T22:32:15;9.00;64.30
975;DHT22;6115;49.296;10.602;2023-04-24T22:37:16;9.00;64.30
975;DHT22;6115;49.296;10.602;2023-04-24T22:42:16;9.00;64.30
975;DHT22;6115;49.296;10.602;2023-04-24T22:47:17;8.90;64.80
975;DHT22;6115;49.296;10.602;2023-04-24T22:52:19;8.70;65.90
975;DHT22;6115;49.296;10.602;2023-04-24T22:57:20;8.60;66.60
975;DHT22;6115;49.296;10.602;2023-04-24T23:02:22;8.50;66.00
975;DHT22;6115;49.296;10.602;2023-04-24T23:07:22;8.50;66.20
975;DHT22;6115;49.296;10.602;2023-04-24T23:12:23;8.40;67.00
975;DHT22;6115;49.296;10.602;2023-04-24T23:17:23;8.30;66.50
975;DHT22;6115;49.296;10.602;2023-04-24T23:22:26;8.30;66.50
975;DHT22;6115;49.296;10.602;2023-04-24T23:27:27;8.40;66.10
975;DHT22;6115;49.296;10.602;2023-04-24T23:32:27;8.40;66.30
975;DHT22;6115;49.296;10.602;2023-04-24T23:37:28;8.40;65.90
975;DHT22;6115;49.296;10.602;2023-04-24T23:42:28;8.40;66.60
975;DHT22;6115;49.296;10.602;2023-04-24T23:47:29;8.50;67.10
975;DHT22;6115;49.296;10.602;2023-04-24T23:52:29;8.50;67.00
975;DHT22;6115;49.296;10.602;2023-04-24T23:57:30;8.30;67.00
